sensor_id;sensor_type;location;lat;lon;timestamp;temperature;humidity
21830;DHT22;11077;50.264;6.798;2023-05-10T00:01:54;10.60;99.90
21830;DHT22;11077;50.264;6.798;2023-05-10T00:04:21;10.60;99.90
21830;DHT22;11077;50.264;6.798;2023-05-10T00:06:53;10.60;99.90
21830;DHT22;11077;50.264;6.798;2023-05-10T00:09:20;10.60;99.90
21830;DHT22;11077;50.264;6.798;2023-05-10T00:11:47;10.60;99.90
21830;DHT22;11077;50.264;6.798;2023-05-10T00:14:14;10.70;99.90
21830;DHT22;11077;50.264;6.798;2023-05-10T00:16:41;10.70;99.90
21830;DHT22;11077;50.264;6.798;2023-05-10T00:19:10;10.70;99.90
21830;DHT22;11077;50.264;6.798;2023-05-10T00:21:37;10.70;99.90
21830;DHT22;11077;50.264;6.798;2023-05-10T00:24:05;10.70;99.90
21830;DHT22;11077;50.264;6.798;2023-05-10T00:26:32;10.70;99.90
21830;DHT22;11077;50.264;6.798;2023-05-10T00:29:00;10.70;99.90
21830;DHT22;11077;50.264;6.798;2023-05-10T00:31:27;10.70;99.90
21830;DHT22;11077;50.264;6.798;2023-05-10T00:33:54;10.80;99.90
21830;DHT22;11077;50.264;6.798;2023-05-10T00:36:23;10.80;99.90
21830;DHT22;11077;50.264;6.798;2023-05-10T00:38:50;10.80;99.90
21830;DHT22;11077;50.264;6.798;2023-05-10T00:41:17;10.80;99.90
21830;DHT22;11077;50.264;6.798;2023-05-10T00:43:45;10.80;99.90
21830;DHT22;11077;50.264;6.798;2023-05-10T00:46:14;10.80;99.90
21830;DHT22;11077;50.264;6.798;2023-05-10T00:48:41;10.80;99.90
21830;DHT22;11077;50.264;6.798;2023-05-10T00:51:09;10.80;99.90
21830;DHT22;11077;50.264;6.798;2023-05-10T00:53:39;10.80;99.90
21830;DHT22;11077;50.264;6.798;2023-05-10T00:56:07;10.80;99.90
21830;DHT22;11077;50.264;6.798;2023-05-10T00:58:34;10.80;99.90
21830;DHT22;11077;50.264;6.798;2023-05-10T01:01:02;10.80;99.90
21830;DHT22;11077;50.264;6.798;2023-05-10T01:03:29;10.80;99.90
21830;DHT22;11077;50.264;6.798;2023-05-10T01:05:57;10.80;99.90
21830;DHT22;11077;50.264;6.798;2023-05-10T01:08:25;10.80;99.90
21830;DHT22;11077;50.264;6.798;2023-05-10T01:10:54;10.80;99.90
21830;DHT22;11077;50.264;6.798;2023-05-10T01:13:30;10.80;99.90
21830;DHT22;11077;50.264;6.798;2023-05-10T01:15:58;10.90;99.90
21830;DHT22;11077;50.264;6.798;2023-05-10T01:18:28;10.90;99.90
21830;DHT22;11077;50.264;6.798;2023-05-10T01:21:04;10.80;99.90
21830;DHT22;11077;50.264;6.798;2023-05-10T01:23:45;10.90;99.90
21830;DHT22;11077;50.264;6.798;2023-05-10T01:26:45;10.80;99.90
21830;DHT22;11077;50.264;6.798;2023-05-10T01:29:32;10.90;99.90
21830;DHT22;11077;50.264;6.798;2023-05-10T01:32:16;10.90;99.90
21830;DHT22;11077;50.264;6.798;2023-05-10T01:34:52;10.80;99.90
21830;DHT22;11077;50.264;6.798;2023-05-10T01:37:25;10.80;99.90
21830;DHT22;11077;50.264;6.798;2023-05-10T01:40:00;10.90;99.90
21830;DHT22;11077;50.264;6.798;2023-05-10T01:42:32;10.80;99.90
21830;DHT22;11077;50.264;6.798;2023-05-10T01:45:10;10.80;99.90
21830;DHT22;11077;50.264;6.798;2023-05-10T01:47:42;10.80;99.90
21830;DHT22;11077;50.264;6.798;2023-05-10T01:50:15;10.80;99.90
21830;DHT22;11077;50.264;6.798;2023-05-10T01:52:50;10.70;99.90
21830;DHT22;11077;50.264;6.798;2023-05-10T01:55:21;10.80;99.90
21830;DHT22;11077;50.264;6.798;2023-05-10T01:57:54;10.70;99.90
21830;DHT22;11077;50.264;6.798;2023-05-10T02:00:23;10.70;99.90
21830;DHT22;11077;50.264;6.798;2023-05-10T02:02:53;10.70;99.90
21830;DHT22;11077;50.264;6.798;2023-05-10T02:05:21;10.70;99.90
21830;DHT22;11077;50.264;6.798;2023-05-10T02:07:50;10.80;99.90
21830;DHT22;11077;50.264;6.798;2023-05-10T02:10:19;10.80;99.90
21830;DHT22;11077;50.264;6.798;2023-05-10T02:12:47;10.80;99.90
21830;DHT22;11077;50.264;6.798;2023-05-10T02:15:20;10.80;99.90
21830;DHT22;11077;50.264;6.798;2023-05-10T02:17:47;10.70;99.90
21830;DHT22;11077;50.264;6.798;2023-05-10T02:20:18;10.70;99.90
21830;DHT22;11077;50.264;6.798;2023-05-10T02:22:48;10.70;99.90
21830;DHT22;11077;50.264;6.798;2023-05-10T02:25:18;10.70;99.90
21830;DHT22;11077;50.264;6.798;2023-05-10T02:27:47;10.80;99.90
21830;DHT22;11077;50.264;6.798;2023-05-10T02:30:15;10.70;99.90
21830;DHT22;11077;50.264;6.798;2023-05-10T02:32:44;10.80;99.90
21830;DHT22;11077;50.264;6.798;2023-05-10T02:35:11;10.80;99.90
21830;DHT22;11077;50.264;6.798;2023-05-10T02:37:40;10.80;99.90
21830;DHT22;11077;50.264;6.798;2023-05-10T02:40:09;10.70;99.90
21830;DHT22;11077;50.264;6.798;2023-05-10T02:42:38;10.70;99.90
21830;DHT22;11077;50.264;6.798;2023-05-10T02:45:11;10.70;99.90
21830;DHT22;11077;50.264;6.798;2023-05-10T02:47:39;10.70;99.90
21830;DHT22;11077;50.264;6.798;2023-05-10T02:50:07;10.70;99.90
21830;DHT22;11077;50.264;6.798;2023-05-10T02:52:43;10.70;99.90
21830;DHT22;11077;50.264;6.798;2023-05-10T02:55:14;10.70;99.90
21830;DHT22;11077;50.264;6.798;2023-05-10T02:57:45;10.70;99.90
21830;DHT22;11077;50.264;6.798;2023-05-10T03:00:15;10.70;99.90
21830;DHT22;11077;50.264;6.798;2023-05-10T03:02:42;10.70;99.90
21830;DHT22;11077;50.264;6.798;2023-05-10T03:05:09;10.60;99.90
21830;DHT22;11077;50.264;6.798;2023-05-10T03:07:36;10.60;99.90
21830;DHT22;11077;50.264;6.798;2023-05-10T03:10:06;10.60;99.90
21830;DHT22;11077;50.264;6.798;2023-05-10T03:12:47;10.60;99.90
21830;DHT22;11077;50.264;6.798;2023-05-10T03:15:25;10.60;99.90
21830;DHT22;11077;50.264;6.798;2023-05-10T03:18:06;10.60;99.90
21830;DHT22;11077;50.264;6.798;2023-05-10T03:20:36;10.60;99.90
21830;DHT22;11077;50.264;6.798;2023-05-10T03:23:12;10.60;99.90
21830;DHT22;11077;50.264;6.798;2023-05-10T03:25:42;10.50;99.90
21830;DHT22;11077;50.264;6.798;2023-05-10T03:28:12;10.50;99.90
21830;DHT22;11077;50.264;6.798;2023-05-10T03:30:42;10.50;99.90
21830;DHT22;11077;50.264;6.798;2023-05-10T03:33:11;10.50;99.90
21830;DHT22;11077;50.264;6.798;2023-05-10T03:35:41;10.50;99.90
21830;DHT22;11077;50.264;6.798;2023-05-10T03:38:11;10.40;99.90
21830;DHT22;11077;50.264;6.798;2023-05-10T03:40:39;10.50;99.90
21830;DHT22;11077;50.264;6.798;2023-05-10T03:43:08;10.50;99.90
21830;DHT22;11077;50.264;6.798;2023-05-10T03:45:35;10.50;99.90
21830;DHT22;11077;50.264;6.798;2023-05-10T03:48:03;10.50;99.90
21830;DHT22;11077;50.264;6.798;2023-05-10T03:50:30;10.50;99.90
21830;DHT22;11077;50.264;6.798;2023-05-10T03:52:58;10.50;99.90
21830;DHT22;11077;50.264;6.798;2023-05-10T03:55:26;10.50;99.90
21830;DHT22;11077;50.264;6.798;2023-05-10T03:57:53;10.50;99.90
21830;DHT22;11077;50.264;6.798;2023-05-10T04:00:23;10.50;99.90
21830;DHT22;11077;50.264;6.798;2023-05-10T04:02:53;10.50;99.90
21830;DHT22;11077;50.264;6.798;2023-05-10T04:05:20;10.40;99.90
21830;DHT22;11077;50.264;6.798;2023-05-10T04:07:47;10.50;99.90
21830;DHT22;11077;50.264;6.798;2023-05-10T04:10:16;10.50;99.90
21830;DHT22;11077;50.264;6.798;2023-05-10T04:12:43;10.50;99.90
21830;DHT22;11077;50.264;6.798;2023-05-10T04:15:10;10.40;99.90
21830;DHT22;11077;50.264;6.798;2023-05-10T04:17:39;10.40;99.90
21830;DHT22;11077;50.264;6.798;2023-05-10T04:20:07;10.40;99.90
21830;DHT22;11077;50.264;6.798;2023-05-10T04:22:34;10.30;99.90
21830;DHT22;11077;50.264;6.798;2023-05-10T04:25:01;10.30;99.90
21830;DHT22;11077;50.264;6.798;2023-05-10T04:27:28;10.30;99.90
21830;DHT22;11077;50.264;6.798;2023-05-10T04:29:55;10.30;99.90
21830;DHT22;11077;50.264;6.798;2023-05-10T04:32:22;10.30;99.90
21830;DHT22;11077;50.264;6.798;2023-05-10T04:34:51;10.30;99.90
21830;DHT22;11077;50.264;6.798;2023-05-10T04:37:18;10.30;99.90
21830;DHT22;11077;50.264;6.798;2023-05-10T04:39:47;10.30;99.90
21830;DHT22;11077;50.264;6.798;2023-05-10T04:42:14;10.30;99.90
21830;DHT22;11077;50.264;6.798;2023-05-10T04:44:41;10.30;99.90
21830;DHT22;11077;50.264;6.798;2023-05-10T04:47:09;10.20;99.90
21830;DHT22;11077;50.264;6.798;2023-05-10T04:49:37;10.20;99.90
21830;DHT22;11077;50.264;6.798;2023-05-10T04:52:06;10.20;99.90
21830;DHT22;11077;50.264;6.798;2023-05-10T04:54:33;10.10;99.90
21830;DHT22;11077;50.264;6.798;2023-05-10T04:57:00;10.20;99.90
21830;DHT22;11077;50.264;6.798;2023-05-10T04:59:27;10.10;99.90
21830;DHT22;11077;50.264;6.798;2023-05-10T05:01:54;10.10;99.90
21830;DHT22;11077;50.264;6.798;2023-05-10T05:04:22;10.20;99.90
21830;DHT22;11077;50.264;6.798;2023-05-10T05:06:49;10.10;99.90
21830;DHT22;11077;50.264;6.798;2023-05-10T05:09:18;10.20;99.90
21830;DHT22;11077;50.264;6.798;2023-05-10T05:11:45;10.20;99.90
21830;DHT22;11077;50.264;6.798;2023-05-10T05:14:12;10.20;99.90
21830;DHT22;11077;50.264;6.798;2023-05-10T05:16:39;10.20;99.90
21830;DHT22;11077;50.264;6.798;2023-05-10T05:19:07;10.10;99.90
21830;DHT22;11077;50.264;6.798;2023-05-10T05:21:34;10.20;99.90
21830;DHT22;11077;50.264;6.798;2023-05-10T05:24:01;10.20;99.90
21830;DHT22;11077;50.264;6.798;2023-05-10T05:26:34;10.20;99.90
21830;DHT22;11077;50.264;6.798;2023-05-10T05:29:02;10.30;99.90
21830;DHT22;11077;50.264;6.798;2023-05-10T05:31:29;10.30;99.90
21830;DHT22;11077;50.264;6.798;2023-05-10T05:33:56;10.30;99.90
21830;DHT22;11077;50.264;6.798;2023-05-10T05:36:24;10.30;99.90
21830;DHT22;11077;50.264;6.798;2023-05-10T05:38:51;10.40;99.90
21830;DHT22;11077;50.264;6.798;2023-05-10T05:41:18;10.40;99.90
21830;DHT22;11077;50.264;6.798;2023-05-10T05:43:47;10.40;99.90
21830;DHT22;11077;50.264;6.798;2023-05-10T05:46:14;10.50;99.90
21830;DHT22;11077;50.264;6.798;2023-05-10T05:48:41;10.50;99.90
21830;DHT22;11077;50.264;6.798;2023-05-10T05:51:08;10.50;99.90
21830;DHT22;11077;50.264;6.798;2023-05-10T05:53:35;10.50;99.90
21830;DHT22;11077;50.264;6.798;2023-05-10T05:56:03;10.50;99.90
21830;DHT22;11077;50.264;6.798;2023-05-10T05:58:30;10.50;99.90
21830;DHT22;11077;50.264;6.798;2023-05-10T06:00:58;10.60;99.90
21830;DHT22;11077;50.264;6.798;2023-05-10T06:03:26;10.60;99.90
21830;DHT22;11077;50.264;6.798;2023-05-10T06:05:53;10.60;99.90
21830;DHT22;11077;50.264;6.798;2023-05-10T06:08:20;10.60;99.90
21830;DHT22;11077;50.264;6.798;2023-05-10T06:10:48;10.70;99.90
21830;DHT22;11077;50.264;6.798;2023-05-10T06:13:15;10.80;99.90
21830;DHT22;11077;50.264;6.798;2023-05-10T06:15:42;10.80;99.90
21830;DHT22;11077;50.264;6.798;2023-05-10T06:18:13;10.80;99.90
21830;DHT22;11077;50.264;6.798;2023-05-10T06:20:41;10.90;99.90
21830;DHT22;11077;50.264;6.798;2023-05-10T06:23:09;10.90;99.90
21830;DHT22;11077;50.264;6.798;2023-05-10T06:25:37;10.90;99.90
21830;DHT22;11077;50.264;6.798;2023-05-10T06:28:04;10.90;99.90
21830;DHT22;11077;50.264;6.798;2023-05-10T06:30:32;11.00;99.90
21830;DHT22;11077;50.264;6.798;2023-05-10T06:33:00;11.00;99.90
21830;DHT22;11077;50.264;6.798;2023-05-10T06:35:29;10.90;99.90
21830;DHT22;11077;50.264;6.798;2023-05-10T06:37:59;11.00;99.90
21830;DHT22;11077;50.264;6.798;2023-05-10T06:40:26;11.00;99.90
21830;DHT22;11077;50.264;6.798;2023-05-10T06:42:53;11.00;99.90
21830;DHT22;11077;50.264;6.798;2023-05-10T06:45:20;11.00;99.90
21830;DHT22;11077;50.264;6.798;2023-05-10T06:47:47;10.90;99.90
21830;DHT22;11077;50.264;6.798;2023-05-10T06:50:14;10.80;99.90
21830;DHT22;11077;50.264;6.798;2023-05-10T06:52:43;10.80;99.90
21830;DHT22;11077;50.264;6.798;2023-05-10T06:55:10;10.80;99.90
21830;DHT22;11077;50.264;6.798;2023-05-10T06:57:38;10.70;99.90
21830;DHT22;11077;50.264;6.798;2023-05-10T07:00:06;10.80;99.90
21830;DHT22;11077;50.264;6.798;2023-05-10T07:02:35;10.70;99.90
21830;DHT22;11077;50.264;6.798;2023-05-10T07:05:02;10.80;99.90
21830;DHT22;11077;50.264;6.798;2023-05-10T07:07:30;10.80;99.90
21830;DHT22;11077;50.264;6.798;2023-05-10T07:09:58;10.70;99.90
21830;DHT22;11077;50.264;6.798;2023-05-10T07:12:27;10.80;99.90
21830;DHT22;11077;50.264;6.798;2023-05-10T07:14:54;10.70;99.90
21830;DHT22;11077;50.264;6.798;2023-05-10T07:17:21;10.60;99.90
21830;DHT22;11077;50.264;6.798;2023-05-10T07:19:48;10.60;99.90
21830;DHT22;11077;50.264;6.798;2023-05-10T07:22:16;10.60;99.90
21830;DHT22;11077;50.264;6.798;2023-05-10T07:24:43;10.60;99.90
21830;DHT22;11077;50.264;6.798;2023-05-10T07:27:12;10.60;99.90
21830;DHT22;11077;50.264;6.798;2023-05-10T07:29:40;10.60;99.90
21830;DHT22;11077;50.264;6.798;2023-05-10T07:32:07;10.60;99.90
21830;DHT22;11077;50.264;6.798;2023-05-10T07:34:35;10.60;99.90
21830;DHT22;11077;50.264;6.798;2023-05-10T07:37:02;10.60;99.90
21830;DHT22;11077;50.264;6.798;2023-05-10T07:39:29;10.60;99.90
21830;DHT22;11077;50.264;6.798;2023-05-10T07:41:56;10.60;99.90
21830;DHT22;11077;50.264;6.798;2023-05-10T07:44:25;10.60;99.90
21830;DHT22;11077;50.264;6.798;2023-05-10T07:46:52;10.60;99.90
21830;DHT22;11077;50.264;6.798;2023-05-10T07:49:19;10.70;99.90
21830;DHT22;11077;50.264;6.798;2023-05-10T07:51:46;10.70;99.90
21830;DHT22;11077;50.264;6.798;2023-05-10T07:54:14;10.80;99.90
21830;DHT22;11077;50.264;6.798;2023-05-10T07:56:41;10.80;99.90
21830;DHT22;11077;50.264;6.798;2023-05-10T07:59:15;10.80;99.90
21830;DHT22;11077;50.264;6.798;2023-05-10T08:01:44;10.90;99.90
21830;DHT22;11077;50.264;6.798;2023-05-10T08:04:11;10.90;99.90
21830;DHT22;11077;50.264;6.798;2023-05-10T08:06:38;11.00;99.90
21830;DHT22;11077;50.264;6.798;2023-05-10T08:09:05;11.00;99.90
21830;DHT22;11077;50.264;6.798;2023-05-10T08:11:33;11.00;99.90
21830;DHT22;11077;50.264;6.798;2023-05-10T08:14:01;11.00;99.90
21830;DHT22;11077;50.264;6.798;2023-05-10T08:16:28;11.10;99.90
21830;DHT22;11077;50.264;6.798;2023-05-10T08:18:56;11.00;99.90
21830;DHT22;11077;50.264;6.798;2023-05-10T08:21:24;11.00;99.90
21830;DHT22;11077;50.264;6.798;2023-05-10T08:23:51;11.00;99.90
21830;DHT22;11077;50.264;6.798;2023-05-10T08:26:19;11.00;99.90
21830;DHT22;11077;50.264;6.798;2023-05-10T08:28:46;11.00;99.90
21830;DHT22;11077;50.264;6.798;2023-05-10T08:31:13;11.00;99.90
21830;DHT22;11077;50.264;6.798;2023-05-10T08:33:41;11.00;99.90
21830;DHT22;11077;50.264;6.798;2023-05-10T08:36:09;11.00;99.90
21830;DHT22;11077;50.264;6.798;2023-05-10T08:38:37;11.00;99.90
21830;DHT22;11077;50.264;6.798;2023-05-10T08:41:05;11.00;99.90
21830;DHT22;11077;50.264;6.798;2023-05-10T08:43:32;10.90;99.90
21830;DHT22;11077;50.264;6.798;2023-05-10T08:46:00;11.00;99.90
21830;DHT22;11077;50.264;6.798;2023-05-10T08:48:29;11.00;99.90
21830;DHT22;11077;50.264;6.798;2023-05-10T08:50:59;11.00;99.90
21830;DHT22;11077;50.264;6.798;2023-05-10T08:53:30;11.10;99.90
21830;DHT22;11077;50.264;6.798;2023-05-10T08:55:58;11.20;99.90
21830;DHT22;11077;50.264;6.798;2023-05-10T08:58:25;11.30;99.90
21830;DHT22;11077;50.264;6.798;2023-05-10T09:00:52;11.40;99.90
21830;DHT22;11077;50.264;6.798;2023-05-10T09:03:20;11.40;99.90
21830;DHT22;11077;50.264;6.798;2023-05-10T09:05:48;11.50;99.90
21830;DHT22;11077;50.264;6.798;2023-05-10T09:08:15;11.50;99.90
21830;DHT22;11077;50.264;6.798;2023-05-10T09:10:44;11.60;99.90
21830;DHT22;11077;50.264;6.798;2023-05-10T09:13:14;11.70;99.90
21830;DHT22;11077;50.264;6.798;2023-05-10T09:15:43;11.90;99.90
21830;DHT22;11077;50.264;6.798;2023-05-10T09:18:11;11.90;99.90
21830;DHT22;11077;50.264;6.798;2023-05-10T09:20:38;12.00;99.90
21830;DHT22;11077;50.264;6.798;2023-05-10T09:23:05;12.20;99.90
21830;DHT22;11077;50.264;6.798;2023-05-10T09:25:32;12.40;99.90
21830;DHT22;11077;50.264;6.798;2023-05-10T09:28:01;12.60;99.90
21830;DHT22;11077;50.264;6.798;2023-05-10T09:30:30;12.70;99.90
21830;DHT22;11077;50.264;6.798;2023-05-10T09:32:58;12.80;99.90
21830;DHT22;11077;50.264;6.798;2023-05-10T09:35:27;12.90;99.90
21830;DHT22;11077;50.264;6.798;2023-05-10T09:37:56;13.00;99.90
21830;DHT22;11077;50.264;6.798;2023-05-10T09:40:25;13.00;99.90
21830;DHT22;11077;50.264;6.798;2023-05-10T09:42:54;13.10;99.90
21830;DHT22;11077;50.264;6.798;2023-05-10T09:45:23;13.20;99.90
21830;DHT22;11077;50.264;6.798;2023-05-10T09:47:51;13.20;99.90
21830;DHT22;11077;50.264;6.798;2023-05-10T09:50:18;13.30;99.90
21830;DHT22;11077;50.264;6.798;2023-05-10T09:52:47;13.30;99.90
21830;DHT22;11077;50.264;6.798;2023-05-10T09:55:15;13.40;99.90
21830;DHT22;11077;50.264;6.798;2023-05-10T09:57:43;13.10;99.90
21830;DHT22;11077;50.264;6.798;2023-05-10T10:00:11;12.90;99.90
21830;DHT22;11077;50.264;6.798;2023-05-10T10:02:45;12.80;99.90
21830;DHT22;11077;50.264;6.798;2023-05-10T10:05:13;12.60;99.90
21830;DHT22;11077;50.264;6.798;2023-05-10T10:07:40;12.60;99.90
21830;DHT22;11077;50.264;6.798;2023-05-10T10:10:08;12.60;99.90
21830;DHT22;11077;50.264;6.798;2023-05-10T10:12:38;12.30;99.90
21830;DHT22;11077;50.264;6.798;2023-05-10T10:15:08;12.10;99.90
21830;DHT22;11077;50.264;6.798;2023-05-10T10:17:36;11.80;99.90
21830;DHT22;11077;50.264;6.798;2023-05-10T10:20:07;11.60;99.90
21830;DHT22;11077;50.264;6.798;2023-05-10T10:22:36;11.60;99.90
21830;DHT22;11077;50.264;6.798;2023-05-10T10:25:05;11.60;99.90
21830;DHT22;11077;50.264;6.798;2023-05-10T10:27:41;11.60;99.90
21830;DHT22;11077;50.264;6.798;2023-05-10T10:30:22;11.60;99.90
21830;DHT22;11077;50.264;6.798;2023-05-10T10:33:13;11.60;99.90
21830;DHT22;11077;50.264;6.798;2023-05-10T10:35:46;11.60;99.90
21830;DHT22;11077;50.264;6.798;2023-05-10T10:38:14;11.70;99.90
21830;DHT22;11077;50.264;6.798;2023-05-10T10:40:42;11.70;99.90
21830;DHT22;11077;50.264;6.798;2023-05-10T10:43:22;11.80;99.90
21830;DHT22;11077;50.264;6.798;2023-05-10T10:46:14;12.00;99.90
21830;DHT22;11077;50.264;6.798;2023-05-10T10:48:48;12.20;99.90
21830;DHT22;11077;50.264;6.798;2023-05-10T10:51:16;12.40;99.90
21830;DHT22;11077;50.264;6.798;2023-05-10T10:53:44;12.50;99.90
21830;DHT22;11077;50.264;6.798;2023-05-10T10:56:12;12.50;99.90
21830;DHT22;11077;50.264;6.798;2023-05-10T10:58:42;12.40;99.90
21830;DHT22;11077;50.264;6.798;2023-05-10T11:01:16;12.40;99.90
21830;DHT22;11077;50.264;6.798;2023-05-10T11:04:18;12.40;99.90
21830;DHT22;11077;50.264;6.798;2023-05-10T11:06:47;12.60;99.90
21830;DHT22;11077;50.264;6.798;2023-05-10T11:09:14;12.80;99.90
21830;DHT22;11077;50.264;6.798;2023-05-10T11:11:51;12.90;99.90
21830;DHT22;11077;50.264;6.798;2023-05-10T11:14:21;13.10;99.90
21830;DHT22;11077;50.264;6.798;2023-05-10T11:16:49;13.10;99.90
21830;DHT22;11077;50.264;6.798;2023-05-10T11:19:17;13.20;99.90
21830;DHT22;11077;50.264;6.798;2023-05-10T11:21:47;13.30;99.90
21830;DHT22;11077;50.264;6.798;2023-05-10T11:24:16;13.30;99.90
21830;DHT22;11077;50.264;6.798;2023-05-10T11:26:44;13.30;99.90
21830;DHT22;11077;50.264;6.798;2023-05-10T11:29:12;13.40;99.90
21830;DHT22;11077;50.264;6.798;2023-05-10T11:31:43;13.50;99.90
21830;DHT22;11077;50.264;6.798;2023-05-10T11:34:11;13.50;99.90
21830;DHT22;11077;50.264;6.798;2023-05-10T11:36:40;13.60;99.90
21830;DHT22;11077;50.264;6.798;2023-05-10T11:39:08;13.50;99.90
21830;DHT22;11077;50.264;6.798;2023-05-10T11:41:37;13.60;99.90
21830;DHT22;11077;50.264;6.798;2023-05-10T11:44:04;13.60;99.90
21830;DHT22;11077;50.264;6.798;2023-05-10T11:46:33;13.60;99.90
21830;DHT22;11077;50.264;6.798;2023-05-10T11:49:01;13.60;99.90
21830;DHT22;11077;50.264;6.798;2023-05-10T11:51:33;13.60;99.90
21830;DHT22;11077;50.264;6.798;2023-05-10T11:54:05;13.60;99.90
21830;DHT22;11077;50.264;6.798;2023-05-10T11:56:35;13.60;99.90
21830;DHT22;11077;50.264;6.798;2023-05-10T11:59:04;13.70;99.90
21830;DHT22;11077;50.264;6.798;2023-05-10T12:01:32;13.70;99.90
21830;DHT22;11077;50.264;6.798;2023-05-10T12:04:00;13.80;99.90
21830;DHT22;11077;50.264;6.798;2023-05-10T12:06:29;13.80;99.90
21830;DHT22;11077;50.264;6.798;2023-05-10T12:08:57;13.80;99.90
21830;DHT22;11077;50.264;6.798;2023-05-10T12:11:25;14.00;99.90
21830;DHT22;11077;50.264;6.798;2023-05-10T12:13:55;14.20;99.90
21830;DHT22;11077;50.264;6.798;2023-05-10T12:16:24;14.30;99.90
21830;DHT22;11077;50.264;6.798;2023-05-10T12:18:55;14.40;99.90
21830;DHT22;11077;50.264;6.798;2023-05-10T12:21:23;14.30;99.90
21830;DHT22;11077;50.264;6.798;2023-05-10T12:23:51;14.30;99.90
21830;DHT22;11077;50.264;6.798;2023-05-10T12:26:22;14.20;99.90
21830;DHT22;11077;50.264;6.798;2023-05-10T12:28:50;14.10;99.90
21830;DHT22;11077;50.264;6.798;2023-05-10T12:31:18;14.10;99.90
21830;DHT22;11077;50.264;6.798;2023-05-10T12:33:46;14.10;99.90
21830;DHT22;11077;50.264;6.798;2023-05-10T12:36:16;14.00;99.90
21830;DHT22;11077;50.264;6.798;2023-05-10T12:38:45;14.10;99.90
21830;DHT22;11077;50.264;6.798;2023-05-10T12:41:15;14.10;99.90
21830;DHT22;11077;50.264;6.798;2023-05-10T12:43:42;14.20;99.90
21830;DHT22;11077;50.264;6.798;2023-05-10T12:46:12;14.20;99.90
21830;DHT22;11077;50.264;6.798;2023-05-10T12:48:42;14.10;99.90
21830;DHT22;11077;50.264;6.798;2023-05-10T12:51:10;13.90;99.90
21830;DHT22;11077;50.264;6.798;2023-05-10T12:53:40;13.80;99.90
21830;DHT22;11077;50.264;6.798;2023-05-10T12:56:11;13.60;99.90
21830;DHT22;11077;50.264;6.798;2023-05-10T12:58:38;13.50;99.90
21830;DHT22;11077;50.264;6.798;2023-05-10T13:01:06;13.40;99.90
21830;DHT22;11077;50.264;6.798;2023-05-10T13:03:34;13.30;99.90
21830;DHT22;11077;50.264;6.798;2023-05-10T13:06:05;13.30;99.90
21830;DHT22;11077;50.264;6.798;2023-05-10T13:08:32;13.30;99.90
21830;DHT22;11077;50.264;6.798;2023-05-10T13:11:00;13.30;99.90
21830;DHT22;11077;50.264;6.798;2023-05-10T13:13:27;13.30;99.90
21830;DHT22;11077;50.264;6.798;2023-05-10T13:15:55;13.30;99.90
21830;DHT22;11077;50.264;6.798;2023-05-10T13:18:22;13.30;99.90
21830;DHT22;11077;50.264;6.798;2023-05-10T13:20:50;13.30;99.90
21830;DHT22;11077;50.264;6.798;2023-05-10T13:23:21;13.30;99.90
21830;DHT22;11077;50.264;6.798;2023-05-10T13:25:48;13.40;99.90
21830;DHT22;11077;50.264;6.798;2023-05-10T13:28:15;13.50;99.90
21830;DHT22;11077;50.264;6.798;2023-05-10T13:30:43;13.60;99.90
21830;DHT22;11077;50.264;6.798;2023-05-10T13:33:12;13.60;99.90
21830;DHT22;11077;50.264;6.798;2023-05-10T13:35:40;13.60;99.90
21830;DHT22;11077;50.264;6.798;2023-05-10T13:38:07;13.70;99.90
21830;DHT22;11077;50.264;6.798;2023-05-10T13:40:38;13.70;99.90
21830;DHT22;11077;50.264;6.798;2023-05-10T13:43:06;13.60;99.90
21830;DHT22;11077;50.264;6.798;2023-05-10T13:45:33;13.60;99.90
21830;DHT22;11077;50.264;6.798;2023-05-10T13:48:00;13.50;99.90
21830;DHT22;11077;50.264;6.798;2023-05-10T13:50:28;13.40;99.90
21830;DHT22;11077;50.264;6.798;2023-05-10T13:52:55;13.40;99.90
21830;DHT22;11077;50.264;6.798;2023-05-10T13:55:22;13.30;99.90
21830;DHT22;11077;50.264;6.798;2023-05-10T13:57:51;13.20;99.90
21830;DHT22;11077;50.264;6.798;2023-05-10T14:00:18;13.10;99.90
21830;DHT22;11077;50.264;6.798;2023-05-10T14:02:46;13.00;99.90
21830;DHT22;11077;50.264;6.798;2023-05-10T14:05:14;13.00;99.90
21830;DHT22;11077;50.264;6.798;2023-05-10T14:07:41;13.00;99.90
21830;DHT22;11077;50.264;6.798;2023-05-10T14:10:09;13.00;99.90
21830;DHT22;11077;50.264;6.798;2023-05-10T14:12:36;12.90;99.90
21830;DHT22;11077;50.264;6.798;2023-05-10T14:15:06;12.90;99.90
21830;DHT22;11077;50.264;6.798;2023-05-10T14:17:34;12.90;99.90
21830;DHT22;11077;50.264;6.798;2023-05-10T14:20:01;13.00;99.90
21830;DHT22;11077;50.264;6.798;2023-05-10T14:22:29;13.00;99.90
21830;DHT22;11077;50.264;6.798;2023-05-10T14:24:56;13.10;99.90
21830;DHT22;11077;50.264;6.798;2023-05-10T14:27:24;13.10;99.90
21830;DHT22;11077;50.264;6.798;2023-05-10T14:29:51;13.00;99.90
21830;DHT22;11077;50.264;6.798;2023-05-10T14:32:21;13.00;99.90
21830;DHT22;11077;50.264;6.798;2023-05-10T14:34:48;13.00;99.90
21830;DHT22;11077;50.264;6.798;2023-05-10T14:37:16;12.90;99.90
21830;DHT22;11077;50.264;6.798;2023-05-10T14:39:44;12.80;99.90
21830;DHT22;11077;50.264;6.798;2023-05-10T14:42:12;12.70;99.90
21830;DHT22;11077;50.264;6.798;2023-05-10T14:44:43;12.70;99.90
21830;DHT22;11077;50.264;6.798;2023-05-10T14:47:11;12.70;99.90
21830;DHT22;11077;50.264;6.798;2023-05-10T14:49:41;12.80;99.90
21830;DHT22;11077;50.264;6.798;2023-05-10T14:52:10;12.80;99.90
21830;DHT22;11077;50.264;6.798;2023-05-10T14:54:38;12.80;99.90
21830;DHT22;11077;50.264;6.798;2023-05-10T14:57:07;12.90;99.90
21830;DHT22;11077;50.264;6.798;2023-05-10T14:59:34;13.00;99.90
21830;DHT22;11077;50.264;6.798;2023-05-10T15:02:01;13.10;99.90
21830;DHT22;11077;50.264;6.798;2023-05-10T15:04:29;13.20;99.90
21830;DHT22;11077;50.264;6.798;2023-05-10T15:06:57;13.30;99.90
21830;DHT22;11077;50.264;6.798;2023-05-10T15:09:25;13.40;99.90
21830;DHT22;11077;50.264;6.798;2023-05-10T15:11:53;13.50;99.90
21830;DHT22;11077;50.264;6.798;2023-05-10T15:14:20;13.60;99.90
21830;DHT22;11077;50.264;6.798;2023-05-10T15:16:47;13.80;99.90
21830;DHT22;11077;50.264;6.798;2023-05-10T15:19:16;13.80;99.90
21830;DHT22;11077;50.264;6.798;2023-05-10T15:21:46;13.90;99.90
21830;DHT22;11077;50.264;6.798;2023-05-10T15:24:14;14.00;99.90
21830;DHT22;11077;50.264;6.798;2023-05-10T15:26:42;14.20;99.90
21830;DHT22;11077;50.264;6.798;2023-05-10T15:29:09;14.40;99.90
21830;DHT22;11077;50.264;6.798;2023-05-10T15:31:36;14.50;99.90
21830;DHT22;11077;50.264;6.798;2023-05-10T15:34:05;14.70;99.90
21830;DHT22;11077;50.264;6.798;2023-05-10T15:36:32;14.80;99.90
21830;DHT22;11077;50.264;6.798;2023-05-10T15:38:59;14.90;99.90
21830;DHT22;11077;50.264;6.798;2023-05-10T15:41:28;15.10;99.90